sensor_id;sensor_type;location;lat;lon;timestamp;P1;durP1;ratioP1;P2;durP2;ratioP2
43803;SDS011;29430;52.924;-2.388;2022-07-18T00:00:44;3.00;;;0.80;;
43803;SDS011;29430;52.924;-2.388;2022-07-18T00:05:36;2.70;;;0.77;;
43803;SDS011;29430;52.924;-2.388;2022-07-18T00:10:27;3.85;;;0.80;;
43803;SDS011;29430;52.924;-2.388;2022-07-18T00:15:19;2.60;;;0.70;;
43803;SDS011;29430;52.924;-2.388;2022-07-18T00:20:11;3.17;;;1.00;;
43803;SDS011;29430;52.924;-2.388;2022-07-18T00:25:03;2.58;;;0.80;;
43803;SDS011;29430;52.924;-2.388;2022-07-18T00:29:55;4.50;;;1.27;;
43803;SDS011;29430;52.924;-2.388;2022-07-18T00:34:47;3.45;;;1.58;;
43803;SDS011;29430;52.924;-2.388;2022-07-18T00:39:40;4.22;;;1.60;;
43803;SDS011;29430;52.924;-2.388;2022-07-18T00:44:32;3.72;;;1.27;;
43803;SDS011;29430;52.924;-2.388;2022-07-18T00:49:24;6.38;;;1.75;;
43803;SDS011;29430;52.924;-2.388;2022-07-18T00:54:16;4.35;;;1.30;;
43803;SDS011;29430;52.924;-2.388;2022-07-18T00:59:09;6.20;;;1.00;;
43803;SDS011;29430;52.924;-2.388;2022-07-18T01:04:02;2.20;;;0.80;;
43803;SDS011;29430;52.924;-2.388;2022-07-18T01:08:54;2.08;;;0.77;;
43803;SDS011;29430;52.924;-2.388;2022-07-18T01:13:45;5.72;;;1.00;;
43803;SDS011;29430;52.924;-2.388;2022-07-18T01:18:37;2.65;;;1.00;;
43803;SDS011;29430;52.924;-2.388;2022-07-18T01:23:36;3.05;;;1.10;;
43803;SDS011;29430;52.924;-2.388;2022-07-18T01:28:27;2.88;;;1.10;;
43803;SDS011;29430;52.924;-2.388;2022-07-18T01:33:19;3.10;;;1.33;;
43803;SDS011;29430;52.924;-2.388;2022-07-18T01:38:11;2.42;;;1.00;;
43803;SDS011;29430;52.924;-2.388;2022-07-18T01:43:04;5.03;;;1.45;;
43803;SDS011;29430;52.924;-2.388;2022-07-18T01:47:56;4.80;;;1.42;;
43803;SDS011;29430;52.924;-2.388;2022-07-18T01:52:47;3.85;;;1.50;;
43803;SDS011;29430;52.924;-2.388;2022-07-18T01:57:39;3.80;;;1.17;;
43803;SDS011;29430;52.924;-2.388;2022-07-18T02:02:31;5.38;;;1.10;;
43803;SDS011;29430;52.924;-2.388;2022-07-18T02:07:23;3.13;;;1.13;;
43803;SDS011;29430;52.924;-2.388;2022-07-18T02:12:15;3.47;;;1.00;;
43803;SDS011;29430;52.924;-2.388;2022-07-18T02:17:07;3.45;;;1.23;;
43803;SDS011;29430;52.924;-2.388;2022-07-18T02:21:59;5.07;;;1.50;;
43803;SDS011;29430;52.924;-2.388;2022-07-18T02:26:51;4.88;;;1.40;;
43803;SDS011;29430;52.924;-2.388;2022-07-18T02:31:42;4.07;;;1.75;;
43803;SDS011;29430;52.924;-2.388;2022-07-18T02:36:34;3.30;;;1.38;;
43803;SDS011;29430;52.924;-2.388;2022-07-18T02:41:26;2.78;;;1.23;;
43803;SDS011;29430;52.924;-2.388;2022-07-18T02:46:21;3.42;;;1.20;;
43803;SDS011;29430;52.924;-2.388;2022-07-18T02:51:13;2.38;;;0.90;;
43803;SDS011;29430;52.924;-2.388;2022-07-18T02:56:05;2.35;;;0.80;;
43803;SDS011;29430;52.924;-2.388;2022-07-18T03:00:57;3.65;;;0.90;;
43803;SDS011;29430;52.924;-2.388;2022-07-18T03:05:49;2.70;;;0.93;;
43803;SDS011;29430;52.924;-2.388;2022-07-18T03:10:41;1.92;;;0.80;;
43803;SDS011;29430;52.924;-2.388;2022-07-18T03:15:32;3.33;;;1.10;;
43803;SDS011;29430;52.924;-2.388;2022-07-18T03:20:24;2.70;;;1.00;;
43803;SDS011;29430;52.924;-2.388;2022-07-18T03:25:16;2.25;;;0.80;;
43803;SDS011;29430;52.924;-2.388;2022-07-18T03:30:08;2.45;;;0.90;;
43803;SDS011;29430;52.924;-2.388;2022-07-18T03:35:00;2.92;;;1.10;;
43803;SDS011;29430;52.924;-2.388;2022-07-18T03:39:52;3.67;;;0.82;;
43803;SDS011;29430;52.924;-2.388;2022-07-18T03:44:44;1.90;;;0.80;;
43803;SDS011;29430;52.924;-2.388;2022-07-18T03:49:37;2.08;;;1.00;;
43803;SDS011;29430;52.924;-2.388;2022-07-18T03:54:28;2.00;;;0.85;;
43803;SDS011;29430;52.924;-2.388;2022-07-18T03:59:20;2.75;;;1.23;;
43803;SDS011;29430;52.924;-2.388;2022-07-18T04:04:12;2.88;;;1.10;;
43803;SDS011;29430;52.924;-2.388;2022-07-18T04:09:04;2.28;;;1.10;;
43803;SDS011;29430;52.924;-2.388;2022-07-18T04:13:56;3.05;;;1.15;;
43803;SDS011;29430;52.924;-2.388;2022-07-18T04:18:48;2.60;;;1.20;;
43803;SDS011;29430;52.924;-2.388;2022-07-18T04:23:42;3.00;;;1.00;;
43803;SDS011;29430;52.924;-2.388;2022-07-18T04:28:34;2.58;;;1.05;;
43803;SDS011;29430;52.924;-2.388;2022-07-18T04:33:26;1.85;;;1.00;;
43803;SDS011;29430;52.924;-2.388;2022-07-18T04:38:18;2.15;;;0.82;;
43803;SDS011;29430;52.924;-2.388;2022-07-18T04:43:10;3.63;;;1.00;;
43803;SDS011;29430;52.924;-2.388;2022-07-18T04:48:03;3.63;;;1.08;;
43803;SDS011;29430;52.924;-2.388;2022-07-18T04:52:56;2.30;;;0.88;;
43803;SDS011;29430;52.924;-2.388;2022-07-18T04:57:49;2.28;;;0.80;;
43803;SDS011;29430;52.924;-2.388;2022-07-18T05:02:42;2.30;;;0.95;;
43803;SDS011;29430;52.924;-2.388;2022-07-18T05:07:35;2.72;;;1.05;;
43803;SDS011;29430;52.924;-2.388;2022-07-18T05:12:28;2.45;;;1.00;;
43803;SDS011;29430;52.924;-2.388;2022-07-18T05:17:20;2.88;;;1.00;;
43803;SDS011;29430;52.924;-2.388;2022-07-18T05:22:11;2.67;;;0.82;;
43803;SDS011;29430;52.924;-2.388;2022-07-18T05:27:03;5.35;;;0.98;;
43803;SDS011;29430;52.924;-2.388;2022-07-18T05:31:55;3.25;;;0.88;;
43803;SDS011;29430;52.924;-2.388;2022-07-18T05:36:47;3.85;;;1.00;;
43803;SDS011;29430;52.924;-2.388;2022-07-18T05:41:39;3.05;;;0.98;;
43803;SDS011;29430;52.924;-2.388;2022-07-18T05:46:31;2.15;;;0.88;;
43803;SDS011;29430;52.924;-2.388;2022-07-18T05:51:23;2.88;;;0.90;;
43803;SDS011;29430;52.924;-2.388;2022-07-18T05:56:15;2.70;;;0.80;;
43803;SDS011;29430;52.924;-2.388;2022-07-18T06:01:07;2.45;;;1.10;;
43803;SDS011;29430;52.924;-2.388;2022-07-18T06:05:59;2.22;;;0.90;;
43803;SDS011;29430;52.924;-2.388;2022-07-18T06:10:50;2.97;;;1.27;;
43803;SDS011;29430;52.924;-2.388;2022-07-18T06:15:42;2.45;;;1.17;;
43803;SDS011;29430;52.924;-2.388;2022-07-18T06:20:34;2.42;;;0.90;;
43803;SDS011;29430;52.924;-2.388;2022-07-18T06:25:26;2.72;;;1.23;;
43803;SDS011;29430;52.924;-2.388;2022-07-18T06:30:17;2.38;;;0.90;;
43803;SDS011;29430;52.924;-2.388;2022-07-18T06:35:09;4.10;;;1.00;;
43803;SDS011;29430;52.924;-2.388;2022-07-18T06:40:01;4.13;;;0.90;;
43803;SDS011;29430;52.924;-2.388;2022-07-18T06:44:54;3.08;;;1.08;;
43803;SDS011;29430;52.924;-2.388;2022-07-18T06:49:46;3.97;;;0.93;;
43803;SDS011;29430;52.924;-2.388;2022-07-18T06:54:38;2.08;;;0.80;;
43803;SDS011;29430;52.924;-2.388;2022-07-18T06:59:31;2.10;;;0.80;;
43803;SDS011;29430;52.924;-2.388;2022-07-18T07:04:23;2.67;;;0.95;;
43803;SDS011;29430;52.924;-2.388;2022-07-18T07:09:15;5.20;;;1.17;;
43803;SDS011;29430;52.924;-2.388;2022-07-18T07:14:07;4.72;;;1.23;;
43803;SDS011;29430;52.924;-2.388;2022-07-18T07:18:58;4.72;;;1.50;;
43803;SDS011;29430;52.924;-2.388;2022-07-18T07:23:50;4.80;;;1.20;;
43803;SDS011;29430;52.924;-2.388;2022-07-18T07:28:42;7.75;;;1.35;;
43803;SDS011;29430;52.924;-2.388;2022-07-18T07:33:34;2.00;;;1.02;;
43803;SDS011;29430;52.924;-2.388;2022-07-18T07:38:25;2.83;;;1.30;;
43803;SDS011;29430;52.924;-2.388;2022-07-18T07:43:19;3.83;;;1.17;;
43803;SDS011;29430;52.924;-2.388;2022-07-18T07:48:11;2.42;;;1.13;;
43803;SDS011;29430;52.924;-2.388;2022-07-18T07:53:03;2.92;;;1.40;;
43803;SDS011;29430;52.924;-2.388;2022-07-18T07:57:55;3.40;;;1.17;;
43803;SDS011;29430;52.924;-2.388;2022-07-18T08:02:57;4.47;;;1.30;;
43803;SDS011;29430;52.924;-2.388;2022-07-18T08:07:51;4.93;;;1.20;;
43803;SDS011;29430;52.924;-2.388;2022-07-18T08:12:43;3.88;;;1.40;;
43803;SDS011;29430;52.924;-2.388;2022-07-18T08:17:35;4.03;;;1.42;;
43803;SDS011;29430;52.924;-2.388;2022-07-18T08:22:27;3.47;;;1.35;;
43803;SDS011;29430;52.924;-2.388;2022-07-18T08:27:19;2.50;;;1.48;;
43803;SDS011;29430;52.924;-2.388;2022-07-18T08:32:10;3.78;;;1.45;;
43803;SDS011;29430;52.924;-2.388;2022-07-18T08:37:03;2.47;;;1.33;;
43803;SDS011;29430;52.924;-2.388;2022-07-18T08:41:55;4.03;;;1.60;;
43803;SDS011;29430;52.924;-2.388;2022-07-18T08:46:52;3.35;;;1.38;;
43803;SDS011;29430;52.924;-2.388;2022-07-18T08:51:45;2.78;;;1.48;;
43803;SDS011;29430;52.924;-2.388;2022-07-18T08:56:37;3.47;;;1.05;;
43803;SDS011;29430;52.924;-2.388;2022-07-18T09:01:29;2.30;;;0.90;;
43803;SDS011;29430;52.924;-2.388;2022-07-18T09:06:22;2.60;;;0.90;;
43803;SDS011;29430;52.924;-2.388;2022-07-18T09:11:13;2.88;;;1.08;;
43803;SDS011;29430;52.924;-2.388;2022-07-18T09:16:25;2.10;;;0.85;;
43803;SDS011;29430;52.924;-2.388;2022-07-18T09:21:19;3.28;;;0.70;;
43803;SDS011;29430;52.924;-2.388;2022-07-18T09:26:12;1.73;;;1.00;;
43803;SDS011;29430;52.924;-2.388;2022-07-18T09:31:16;1.65;;;0.77;;
43803;SDS011;29430;52.924;-2.388;2022-07-18T09:36:12;2.70;;;0.73;;
43803;SDS011;29430;52.924;-2.388;2022-07-18T09:41:03;1.85;;;0.80;;
43803;SDS011;29430;52.924;-2.388;2022-07-18T09:46:03;1.77;;;0.93;;
43803;SDS011;29430;52.924;-2.388;2022-07-18T09:55:56;3.88;;;0.93;;
43803;SDS011;29430;52.924;-2.388;2022-07-18T10:00:50;1.65;;;0.90;;
43803;SDS011;29430;52.924;-2.388;2022-07-18T10:05:43;4.20;;;1.05;;
43803;SDS011;29430;52.924;-2.388;2022-07-18T10:10:38;2.40;;;1.13;;
43803;SDS011;29430;52.924;-2.388;2022-07-18T10:15:32;2.07;;;1.20;;
43803;SDS011;29430;52.924;-2.388;2022-07-18T10:21:12;3.00;;;1.00;;
43803;SDS011;29430;52.924;-2.388;2022-07-18T10:31:13;2.90;;;1.17;;
43803;SDS011;29430;52.924;-2.388;2022-07-18T10:45:54;4.40;;;1.30;;
43803;SDS011;29430;52.924;-2.388;2022-07-18T10:51:29;4.00;;;0.95;;
43803;SDS011;29430;52.924;-2.388;2022-07-18T10:56:02;4.43;;;1.30;;
43803;SDS011;29430;52.924;-2.388;2022-07-18T11:00:54;8.48;;;1.50;;
43803;SDS011;29430;52.924;-2.388;2022-07-18T11:05:54;6.03;;;1.67;;
43803;SDS011;29430;52.924;-2.388;2022-07-18T11:20:51;4.93;;;1.35;;
43803;SDS011;29430;52.924;-2.388;2022-07-18T11:25:43;4.00;;;1.17;;
43803;SDS011;29430;52.924;-2.388;2022-07-18T11:31:04;5.38;;;1.25;;
43803;SDS011;29430;52.924;-2.388;2022-07-18T11:40:59;2.03;;;1.30;;
43803;SDS011;29430;52.924;-2.388;2022-07-18T11:46:01;2.17;;;0.98;;
43803;SDS011;29430;52.924;-2.388;2022-07-18T11:50:54;3.15;;;0.90;;
43803;SDS011;29430;52.924;-2.388;2022-07-18T11:55:46;3.85;;;1.00;;
43803;SDS011;29430;52.924;-2.388;2022-07-18T12:00:40;1.30;;;0.70;;
43803;SDS011;29430;52.924;-2.388;2022-07-18T12:05:45;3.67;;;1.15;;
43803;SDS011;29430;52.924;-2.388;2022-07-18T12:10:42;2.03;;;0.80;;
43803;SDS011;29430;52.924;-2.388;2022-07-18T12:15:38;4.05;;;1.23;;
43803;SDS011;29430;52.924;-2.388;2022-07-18T12:20:30;1.67;;;1.00;;
43803;SDS011;29430;52.924;-2.388;2022-07-18T12:25:33;1.98;;;1.02;;
43803;SDS011;29430;52.924;-2.388;2022-07-18T12:30:26;2.03;;;0.90;;
43803;SDS011;29430;52.924;-2.388;2022-07-18T12:35:22;2.20;;;0.90;;
43803;SDS011;29430;52.924;-2.388;2022-07-18T12:40:18;2.08;;;0.80;;
43803;SDS011;29430;52.924;-2.388;2022-07-18T12:45:19;1.58;;;0.80;;
43803;SDS011;29430;52.924;-2.388;2022-07-18T12:50:11;2.47;;;0.70;;
43803;SDS011;29430;52.924;-2.388;2022-07-18T12:55:05;1.60;;;0.70;;
43803;SDS011;29430;52.924;-2.388;2022-07-18T12:59:57;2.72;;;0.75;;
43803;SDS011;29430;52.924;-2.388;2022-07-18T13:04:49;5.30;;;0.80;;
43803;SDS011;29430;52.924;-2.388;2022-07-18T13:09:41;1.88;;;0.75;;
43803;SDS011;29430;52.924;-2.388;2022-07-18T13:14:33;3.10;;;0.60;;
43803;SDS011;29430;52.924;-2.388;2022-07-18T13:19:25;2.38;;;0.60;;
43803;SDS011;29430;52.924;-2.388;2022-07-18T13:24:17;3.30;;;0.70;;
43803;SDS011;29430;52.924;-2.388;2022-07-18T13:29:25;2.47;;;0.55;;
43803;SDS011;29430;52.924;-2.388;2022-07-18T13:34:17;6.05;;;1.00;;
43803;SDS011;29430;52.924;-2.388;2022-07-18T13:39:09;2.72;;;0.60;;
43803;SDS011;29430;52.924;-2.388;2022-07-18T13:44:01;3.35;;;0.70;;
43803;SDS011;29430;52.924;-2.388;2022-07-18T13:48:52;1.30;;;0.50;;
43803;SDS011;29430;52.924;-2.388;2022-07-18T13:53:44;1.38;;;0.60;;
43803;SDS011;29430;52.924;-2.388;2022-07-18T13:58:36;1.20;;;0.60;;
43803;SDS011;29430;52.924;-2.388;2022-07-18T14:03:28;3.63;;;0.68;;
43803;SDS011;29430;52.924;-2.388;2022-07-18T14:08:20;1.95;;;0.60;;
43803;SDS011;29430;52.924;-2.388;2022-07-18T14:13:11;2.05;;;0.50;;
43803;SDS011;29430;52.924;-2.388;2022-07-18T14:18:03;1.10;;;0.50;;
43803;SDS011;29430;52.924;-2.388;2022-07-18T14:22:56;2.53;;;0.60;;
43803;SDS011;29430;52.924;-2.388;2022-07-18T14:27:48;1.17;;;0.52;;
43803;SDS011;29430;52.924;-2.388;2022-07-18T14:32:40;2.25;;;0.50;;
43803;SDS011;29430;52.924;-2.388;2022-07-18T14:37:32;1.10;;;0.47;;
43803;SDS011;29430;52.924;-2.388;2022-07-18T14:42:24;1.70;;;0.60;;
43803;SDS011;29430;52.924;-2.388;2022-07-18T14:47:17;1.83;;;0.40;;
43803;SDS011;29430;52.924;-2.388;2022-07-18T14:52:09;4.35;;;0.60;;
43803;SDS011;29430;52.924;-2.388;2022-07-18T14:57:00;0.98;;;0.40;;
43803;SDS011;29430;52.924;-2.388;2022-07-18T15:01:54;1.58;;;0.50;;
43803;SDS011;29430;52.924;-2.388;2022-07-18T15:06:47;0.90;;;0.50;;
43803;SDS011;29430;52.924;-2.388;2022-07-18T15:11:39;0.70;;;0.30;;
43803;SDS011;29430;52.924;-2.388;2022-07-18T15:16:31;5.32;;;0.45;;
43803;SDS011;29430;52.924;-2.388;2022-07-18T15:21:23;5.72;;;0.40;;
43803;SDS011;29430;52.924;-2.388;2022-07-18T15:26:15;2.10;;;0.50;;
43803;SDS011;29430;52.924;-2.388;2022-07-18T15:31:06;1.10;;;0.50;;
43803;SDS011;29430;52.924;-2.388;2022-07-18T15:35:58;3.13;;;0.50;;
43803;SDS011;29430;52.924;-2.388;2022-07-18T15:40:50;0.82;;;0.50;;
43803;SDS011;29430;52.924;-2.388;2022-07-18T15:45:42;3.60;;;0.47;;
43803;SDS011;29430;52.924;-2.388;2022-07-18T15:50:36;1.10;;;0.43;;
43803;SDS011;29430;52.924;-2.388;2022-07-18T15:55:28;1.80;;;0.60;;
43803;SDS011;29430;52.924;-2.388;2022-07-18T16:00:24;5.35;;;0.70;;
43803;SDS011;29430;52.924;-2.388;2022-07-18T16:05:16;2.58;;;0.60;;
43803;SDS011;29430;52.924;-2.388;2022-07-18T16:10:08;1.58;;;0.65;;
43803;SDS011;29430;52.924;-2.388;2022-07-18T16:15:00;3.47;;;0.70;;
43803;SDS011;29430;52.924;-2.388;2022-07-18T16:19:55;2.88;;;1.17;;
43803;SDS011;29430;52.924;-2.388;2022-07-18T16:24:47;2.55;;;0.70;;
43803;SDS011;29430;52.924;-2.388;2022-07-18T16:29:39;3.55;;;0.63;;
43803;SDS011;29430;52.924;-2.388;2022-07-18T16:34:33;2.47;;;0.77;;
43803;SDS011;29430;52.924;-2.388;2022-07-18T16:39:25;4.05;;;0.70;;
43803;SDS011;29430;52.924;-2.388;2022-07-18T16:44:17;2.95;;;0.60;;
43803;SDS011;29430;52.924;-2.388;2022-07-18T16:49:09;2.55;;;0.68;;
43803;SDS011;29430;52.924;-2.388;2022-07-18T16:54:01;1.60;;;0.60;;
43803;SDS011;29430;52.924;-2.388;2022-07-18T16:58:53;1.55;;;0.60;;
43803;SDS011;29430;52.924;-2.388;2022-07-18T17:03:45;5.50;;;0.80;;
43803;SDS011;29430;52.924;-2.388;2022-07-18T17:08:37;2.08;;;0.70;;
43803;SDS011;29430;52.924;-2.388;2022-07-18T17:13:29;2.90;;;0.65;;
43803;SDS011;29430;52.924;-2.388;2022-07-18T17:18:22;2.83;;;0.50;;
43803;SDS011;29430;52.924;-2.388;2022-07-18T17:23:14;3.08;;;0.80;;
43803;SDS011;29430;52.924;-2.388;2022-07-18T17:28:07;3.35;;;0.60;;
43803;SDS011;29430;52.924;-2.388;2022-07-18T17:32:59;4.47;;;0.70;;
43803;SDS011;29430;52.924;-2.388;2022-07-18T17:38:11;6.40;;;0.75;;
43803;SDS011;29430;52.924;-2.388;2022-07-18T17:43:04;4.05;;;0.77;;
43803;SDS011;29430;52.924;-2.388;2022-07-18T17:47:56;4.10;;;0.75;;
43803;SDS011;29430;52.924;-2.388;2022-07-18T17:52:48;8.13;;;0.73;;
43803;SDS011;29430;52.924;-2.388;2022-07-18T17:57:41;3.47;;;0.70;;
43803;SDS011;29430;52.924;-2.388;2022-07-18T18:02:33;4.95;;;0.80;;
43803;SDS011;29430;52.924;-2.388;2022-07-18T18:07:25;2.47;;;0.60;;
43803;SDS011;29430;52.924;-2.388;2022-07-18T18:12:17;3.85;;;0.70;;
43803;SDS011;29430;52.924;-2.388;2022-07-18T18:17:11;4.85;;;0.70;;
43803;SDS011;29430;52.924;-2.388;2022-07-18T18:22:11;2.92;;;0.60;;
43803;SDS011;29430;52.924;-2.388;2022-07-18T18:27:03;1.42;;;0.60;;
43803;SDS011;29430;52.924;-2.388;2022-07-18T18:31:55;2.88;;;0.63;;
43803;SDS011;29430;52.924;-2.388;2022-07-18T18:36:47;3.10;;;0.70;;
43803;SDS011;29430;52.924;-2.388;2022-07-18T18:41:54;4.68;;;0.85;;
43803;SDS011;29430;52.924;-2.388;2022-07-18T18:46:47;2.63;;;0.80;;
43803;SDS011;29430;52.924;-2.388;2022-07-18T18:51:39;2.75;;;0.60;;
43803;SDS011;29430;52.924;-2.388;2022-07-18T18:56:35;3.63;;;0.50;;
43803;SDS011;29430;52.924;-2.388;2022-07-18T19:01:27;1.65;;;0.50;;
43803;SDS011;29430;52.924;-2.388;2022-07-18T19:06:19;2.25;;;0.50;;
43803;SDS011;29430;52.924;-2.388;2022-07-18T19:11:11;3.35;;;0.68;;
43803;SDS011;29430;52.924;-2.388;2022-07-18T19:16:04;3.97;;;0.60;;
43803;SDS011;29430;52.924;-2.388;2022-07-18T19:20:56;2.20;;;0.50;;
43803;SDS011;29430;52.924;-2.388;2022-07-18T19:25:47;2.30;;;0.50;;
43803;SDS011;29430;52.924;-2.388;2022-07-18T19:30:39;3.22;;;0.60;;
43803;SDS011;29430;52.924;-2.388;2022-07-18T19:35:31;1.50;;;0.50;;
43803;SDS011;29430;52.924;-2.388;2022-07-18T19:40:23;2.15;;;0.70;;
43803;SDS011;29430;52.924;-2.388;2022-07-18T19:45:17;2.50;;;0.50;;
43803;SDS011;29430;52.924;-2.388;2022-07-18T19:50:09;2.38;;;0.50;;
43803;SDS011;29430;52.924;-2.388;2022-07-18T19:55:08;4.25;;;0.57;;
43803;SDS011;29430;52.924;-2.388;2022-07-18T20:00:00;4.78;;;0.60;;
43803;SDS011;29430;52.924;-2.388;2022-07-18T20:04:52;1.60;;;0.52;;
43803;SDS011;29430;52.924;-2.388;2022-07-18T20:09:43;3.13;;;0.50;;
43803;SDS011;29430;52.924;-2.388;2022-07-18T20:14:35;2.40;;;0.47;;
43803;SDS011;29430;52.924;-2.388;2022-07-18T20:19:27;3.33;;;0.50;;
43803;SDS011;29430;52.924;-2.388;2022-07-18T20:24:18;1.45;;;0.50;;
43803;SDS011;29430;52.924;-2.388;2022-07-18T20:29:10;1.27;;;0.43;;
43803;SDS011;29430;52.924;-2.388;2022-07-18T20:34:02;3.15;;;0.60;;
43803;SDS011;29430;52.924;-2.388;2022-07-18T20:38:54;2.75;;;0.50;;
43803;SDS011;29430;52.924;-2.388;2022-07-18T20:43:46;1.95;;;0.60;;
43803;SDS011;29430;52.924;-2.388;2022-07-18T20:48:38;1.98;;;0.60;;
43803;SDS011;29430;52.924;-2.388;2022-07-18T20:53:29;1.20;;;0.50;;
43803;SDS011;29430;52.924;-2.388;2022-07-18T20:58:23;2.55;;;0.57;;
43803;SDS011;29430;52.924;-2.388;2022-07-18T21:03:14;4.03;;;0.60;;
43803;SDS011;29430;52.924;-2.388;2022-07-18T21:08:06;2.63;;;0.60;;
43803;SDS011;29430;52.924;-2.388;2022-07-18T21:12:58;0.93;;;0.50;;
43803;SDS011;29430;52.924;-2.388;2022-07-18T21:17:55;3.47;;;0.60;;
43803;SDS011;29430;52.924;-2.388;2022-07-18T21:22:47;3.17;;;0.55;;
43803;SDS011;29430;52.924;-2.388;2022-07-18T21:27:39;4.43;;;0.75;;
43803;SDS011;29430;52.924;-2.388;2022-07-18T21:32:31;6.85;;;1.60;;
43803;SDS011;29430;52.924;-2.388;2022-07-18T21:37:23;2.80;;;0.60;;
43803;SDS011;29430;52.924;-2.388;2022-07-18T21:42:15;5.82;;;0.60;;
43803;SDS011;29430;52.924;-2.388;2022-07-18T21:47:07;4.25;;;0.82;;
43803;SDS011;29430;52.924;-2.388;2022-07-18T21:51:59;3.95;;;0.70;;
43803;SDS011;29430;52.924;-2.388;2022-07-18T21:56:51;2.03;;;0.70;;
43803;SDS011;29430;52.924;-2.388;2022-07-18T22:01:43;1.83;;;0.60;;
43803;SDS011;29430;52.924;-2.388;2022-07-18T22:06:36;2.40;;;0.70;;
43803;SDS011;29430;52.924;-2.388;2022-07-18T22:11:29;1.67;;;0.60;;
43803;SDS011;29430;52.924;-2.388;2022-07-18T22:16:22;1.92;;;0.70;;
43803;SDS011;29430;52.924;-2.388;2022-07-18T22:21:18;4.65;;;1.05;;
43803;SDS011;29430;52.924;-2.388;2022-07-18T22:26:11;1.60;;;0.63;;
43803;SDS011;29430;52.924;-2.388;2022-07-18T22:31:03;2.15;;;0.65;;
43803;SDS011;29430;52.924;-2.388;2022-07-18T22:35:55;3.15;;;0.70;;
43803;SDS011;29430;52.924;-2.388;2022-07-18T22:40:47;2.80;;;0.60;;
43803;SDS011;29430;52.924;-2.388;2022-07-18T22:45:39;5.60;;;0.60;;
43803;SDS011;29430;52.924;-2.388;2022-07-18T22:50:31;1.95;;;0.50;;
43803;SDS011;29430;52.924;-2.388;2022-07-18T22:55:23;3.20;;;0.70;;
43803;SDS011;29430;52.924;-2.388;2022-07-18T23:00:21;1.70;;;0.70;;
43803;SDS011;29430;52.924;-2.388;2022-07-18T23:05:13;3.50;;;0.70;;
43803;SDS011;29430;52.924;-2.388;2022-07-18T23:10:17;1.70;;;0.70;;
43803;SDS011;29430;52.924;-2.388;2022-07-18T23:15:10;2.80;;;1.00;;
43803;SDS011;29430;52.924;-2.388;2022-07-18T23:20:03;2.70;;;0.80;;
43803;SDS011;29430;52.924;-2.388;2022-07-18T23:24:56;4.22;;;0.80;;
43803;SDS011;29430;52.924;-2.388;2022-07-18T23:29:48;3.95;;;0.80;;
43803;SDS011;29430;52.924;-2.388;2022-07-18T23:34:40;2.30;;;0.70;;
43803;SDS011;29430;52.924;-2.388;2022-07-18T23:39:32;5.70;;;0.70;;
43803;SDS011;29430;52.924;-2.388;2022-07-18T23:44:25;3.08;;;0.90;;
43803;SDS011;29430;52.924;-2.388;2022-07-18T23:49:16;1.40;;;0.70;;
43803;SDS011;29430;52.924;-2.388;2022-07-18T23:54:08;3.45;;;0.60;;
43803;SDS011;29430;52.924;-2.388;2022-07-18T23:59:00;1.98;;;0.70;;
